createdAt,value
2023-05-19T00:00:17.368Z,0.50
2023-05-19T00:01:17.439Z,0.50
2023-05-19T00:02:17.380Z,0.48
2023-05-19T00:03:17.526Z,0.44
2023-05-19T00:04:17.358Z,0.42
2023-05-19T00:05:17.354Z,0.42
2023-05-19T00:06:17.427Z,0.49
2023-05-19T00:07:17.355Z,0.50
2023-05-19T00:08:17.363Z,0.50
2023-05-19T00:09:17.355Z,0.50
2023-05-19T00:10:17.349Z,0.50
2023-05-19T00:11:17.355Z,0.49
2023-05-19T00:12:17.369Z,0.51
2023-05-19T00:13:17.342Z,0.57
2023-05-19T00:14:17.364Z,0.68
2023-05-19T00:15:17.329Z,0.86
2023-05-19T00:16:17.406Z,1.02
2023-05-19T00:17:17.332Z,1.04
2023-05-19T00:18:17.334Z,0.85
2023-05-19T00:19:17.457Z,0.91
2023-05-19T00:20:17.334Z,1.07
2023-05-19T00:21:17.329Z,1.11
2023-05-19T00:22:17.343Z,1.19
2023-05-19T00:23:17.325Z,1.30
2023-05-19T00:24:17.323Z,1.34
2023-05-19T00:25:17.313Z,1.44
2023-05-19T00:26:17.313Z,1.48
2023-05-19T00:27:17.310Z,1.21
2023-05-19T00:28:17.333Z,1.11
2023-05-19T00:29:17.299Z,1.21
2023-05-19T00:30:17.287Z,1.20
2023-05-19T00:31:17.400Z,1.02
2023-05-19T00:32:17.433Z,0.82
2023-05-19T00:33:17.422Z,0.67
2023-05-19T00:34:17.464Z,0.51
2023-05-19T00:35:17.562Z,0.50
2023-05-19T00:36:17.554Z,0.53
2023-05-19T00:37:17.543Z,0.58
2023-05-19T00:38:17.550Z,0.68
2023-05-19T00:39:17.607Z,0.57
2023-05-19T00:40:17.626Z,0.57
2023-05-19T00:41:17.623Z,0.94
2023-05-19T00:42:17.672Z,1.28
2023-05-19T00:43:17.705Z,0.85
2023-05-19T00:44:17.778Z,0.58
2023-05-19T00:45:17.773Z,0.61
2023-05-19T00:46:17.775Z,0.57
2023-05-19T00:47:17.735Z,0.58
2023-05-19T00:48:16.740Z,0.60
2023-05-19T00:49:17.748Z,0.62
2023-05-19T00:50:17.771Z,0.57
2023-05-19T00:51:17.837Z,0.51
2023-05-19T00:52:17.853Z,0.50
2023-05-19T00:53:17.887Z,0.51
2023-05-19T00:54:17.856Z,0.52
2023-05-19T00:55:17.874Z,0.50
2023-05-19T00:56:17.869Z,0.55
2023-05-19T00:57:17.865Z,0.51
2023-05-19T00:58:17.873Z,0.52
2023-05-19T00:59:17.887Z,0.51
2023-05-19T01:00:17.961Z,0.55
2023-05-19T01:01:18.054Z,0.52
2023-05-19T01:02:18.016Z,0.50
2023-05-19T01:03:18.146Z,0.52
2023-05-19T01:04:18.066Z,0.47
2023-05-19T01:05:18.090Z,0.48
2023-05-19T01:06:18.099Z,0.53
2023-05-19T01:07:18.091Z,0.60
2023-05-19T01:08:18.097Z,0.62
2023-05-19T01:09:18.088Z,0.68
2023-05-19T01:10:18.119Z,0.67
2023-05-19T01:11:18.153Z,0.70
2023-05-19T01:12:18.169Z,0.90
2023-05-19T01:13:18.567Z,1.00
2023-05-19T01:14:18.211Z,1.04
2023-05-19T01:15:18.218Z,1.07
2023-05-19T01:16:18.302Z,1.04
2023-05-19T01:17:18.234Z,1.01
2023-05-19T01:18:18.258Z,1.09
2023-05-19T01:19:18.341Z,1.16
2023-05-19T01:20:18.269Z,1.23
2023-05-19T01:21:18.286Z,1.19
2023-05-19T01:22:18.265Z,1.30
2023-05-19T01:23:18.302Z,1.16
2023-05-19T01:24:18.359Z,1.17
2023-05-19T01:25:18.410Z,1.18
2023-05-19T01:26:18.434Z,1.26
2023-05-19T01:27:18.456Z,1.24
2023-05-19T01:28:18.496Z,1.24
2023-05-19T01:29:18.535Z,1.20
2023-05-19T01:30:18.557Z,0.96
2023-05-19T01:31:18.657Z,0.80
2023-05-19T01:32:18.691Z,0.69
2023-05-19T01:33:18.608Z,0.65
2023-05-19T01:34:18.634Z,0.67
2023-05-19T01:35:18.638Z,0.78
2023-05-19T01:36:18.659Z,1.03
2023-05-19T01:37:18.684Z,1.22
2023-05-19T01:38:18.722Z,1.33
2023-05-19T01:39:18.692Z,1.35
2023-05-19T01:40:18.705Z,1.44
2023-05-19T01:41:18.712Z,1.63
2023-05-19T01:42:18.723Z,1.81
2023-05-19T01:43:18.734Z,1.96
2023-05-19T01:44:18.757Z,2.02
2023-05-19T01:45:18.791Z,1.94
2023-05-19T01:46:18.854Z,1.91
2023-05-19T01:47:18.824Z,1.97
2023-05-19T01:48:18.868Z,1.92
2023-05-19T01:49:18.880Z,1.81
2023-05-19T01:50:18.935Z,1.62
2023-05-19T01:51:19.001Z,1.71
2023-05-19T01:52:19.081Z,1.77
2023-05-19T01:53:19.140Z,1.80
2023-05-19T01:54:19.204Z,1.85
2023-05-19T01:55:19.286Z,1.54
2023-05-19T01:56:19.340Z,1.37
2023-05-19T01:57:19.380Z,1.36
2023-05-19T01:58:19.457Z,1.28
2023-05-19T01:59:19.497Z,1.29
2023-05-19T02:00:21.345Z,1.68
2023-05-19T02:01:19.573Z,2.41
2023-05-19T02:02:19.519Z,3.07
2023-05-19T02:03:19.511Z,3.03
2023-05-19T02:04:19.586Z,2.89
2023-05-19T02:05:19.542Z,3.29
2023-05-19T02:06:19.490Z,3.71
2023-05-19T02:07:19.468Z,4.57
2023-05-19T02:08:19.475Z,4.75
2023-05-19T02:09:19.426Z,5.12
2023-05-19T02:10:19.435Z,4.31
2023-05-19T02:11:19.414Z,4.57
2023-05-19T02:12:19.402Z,4.86
2023-05-19T02:13:19.401Z,5.05
2023-05-19T02:14:19.380Z,4.33
2023-05-19T02:15:19.367Z,2.86
2023-05-19T02:16:19.472Z,2.07
2023-05-19T02:17:19.340Z,1.75
2023-05-19T02:18:19.369Z,1.74
2023-05-19T02:19:19.443Z,1.98
2023-05-19T02:20:19.470Z,2.49
2023-05-19T02:21:19.495Z,2.81
2023-05-19T02:22:19.525Z,2.61
2023-05-19T02:23:19.568Z,2.00
2023-05-19T02:24:19.639Z,1.80
2023-05-19T02:25:19.631Z,1.69
2023-05-19T02:26:19.650Z,1.64
2023-05-19T02:27:19.651Z,1.65
2023-05-19T02:28:19.678Z,1.70
2023-05-19T02:29:19.751Z,1.68
2023-05-19T02:30:19.811Z,1.50
2023-05-19T02:31:19.840Z,1.26
2023-05-19T02:32:19.873Z,1.25
2023-05-19T02:33:19.815Z,1.44
2023-05-19T02:34:19.823Z,1.59
2023-05-19T02:35:19.869Z,2.17
2023-05-19T02:36:19.879Z,2.31
2023-05-19T02:37:19.933Z,2.17
2023-05-19T02:38:19.958Z,3.05
2023-05-19T02:39:20.011Z,4.28
2023-05-19T02:40:20.048Z,5.34
2023-05-19T02:41:20.112Z,5.81
2023-05-19T02:42:20.126Z,4.28
2023-05-19T02:43:20.160Z,3.19
2023-05-19T02:44:20.235Z,4.41
2023-05-19T02:45:20.220Z,5.04
2023-05-19T02:46:20.323Z,4.04
2023-05-19T02:47:20.286Z,3.22
2023-05-19T02:48:20.324Z,3.00
2023-05-19T02:49:20.357Z,2.74
2023-05-19T02:50:20.409Z,2.72
2023-05-19T02:51:20.421Z,2.66
2023-05-19T02:52:20.467Z,2.37
2023-05-19T02:53:20.492Z,2.69
2023-05-19T02:54:20.510Z,2.60
2023-05-19T02:55:20.532Z,2.66
2023-05-19T02:56:20.563Z,2.67
2023-05-19T02:57:20.601Z,2.50
2023-05-19T02:58:20.634Z,2.47
2023-05-19T02:59:20.662Z,2.38
2023-05-19T03:00:20.698Z,2.30
2023-05-19T03:01:20.852Z,2.43
2023-05-19T03:02:20.784Z,2.73
2023-05-19T03:03:20.977Z,3.00
2023-05-19T03:04:20.878Z,5.76
2023-05-19T03:05:20.958Z,7.55
2023-05-19T03:06:20.999Z,5.72
2023-05-19T03:07:21.036Z,4.99
2023-05-19T03:08:21.090Z,4.74
2023-05-19T03:09:21.120Z,4.37
2023-05-19T03:10:21.165Z,4.24
2023-05-19T03:11:21.287Z,4.38
2023-05-19T03:12:21.256Z,4.43
2023-05-19T03:13:21.306Z,5.34
2023-05-19T03:14:21.371Z,6.27
2023-05-19T03:15:21.406Z,6.33
2023-05-19T03:16:21.500Z,6.83
2023-05-19T03:17:21.618Z,7.05
2023-05-19T03:18:21.606Z,7.66
2023-05-19T03:19:21.741Z,7.84
2023-05-19T03:20:21.687Z,6.94
2023-05-19T03:21:21.793Z,6.40
2023-05-19T03:22:21.806Z,5.59
2023-05-19T03:23:21.866Z,5.36
2023-05-19T03:24:21.942Z,5.18
2023-05-19T03:25:21.970Z,5.66
2023-05-19T03:26:22.024Z,6.09
2023-05-19T03:27:22.099Z,5.94
2023-05-19T03:28:22.130Z,5.60
2023-05-19T03:29:22.185Z,5.85
2023-05-19T03:30:22.218Z,5.94
2023-05-19T03:31:22.283Z,7.24
2023-05-19T03:32:22.410Z,8.48
2023-05-19T03:33:22.573Z,8.53
2023-05-19T03:34:22.464Z,8.64
2023-05-19T03:35:22.510Z,7.46
2023-05-19T03:36:22.570Z,5.06
2023-05-19T03:37:22.648Z,4.86
2023-05-19T03:38:22.742Z,4.95
2023-05-19T03:39:22.746Z,5.16
2023-05-19T03:40:22.826Z,10.14
2023-05-19T03:41:22.857Z,15.73
2023-05-19T03:42:22.895Z,19.66
2023-05-19T03:43:22.906Z,21.27
2023-05-19T03:44:22.974Z,19.32
2023-05-19T03:45:23.007Z,21.72
2023-05-19T03:46:23.125Z,18.65
2023-05-19T03:47:23.117Z,18.89
2023-05-19T03:48:23.078Z,19.74
2023-05-19T03:49:23.083Z,17.81
2023-05-19T03:50:23.143Z,15.16
2023-05-19T03:51:23.194Z,12.48
2023-05-19T03:52:23.251Z,9.32
2023-05-19T03:53:23.296Z,8.78
2023-05-19T03:54:23.381Z,9.07
2023-05-19T03:55:23.406Z,8.28
2023-05-19T03:56:23.486Z,19.35
2023-05-19T03:57:23.522Z,31.69
2023-05-19T03:58:23.577Z,30.75
2023-05-19T03:59:23.622Z,42.52
2023-05-19T04:00:23.685Z,37.70
2023-05-19T04:01:23.719Z,22.22
2023-05-19T04:02:23.771Z,17.41
2023-05-19T04:03:23.860Z,14.27
2023-05-19T04:04:23.846Z,13.34
2023-05-19T04:05:23.834Z,11.01
2023-05-19T04:06:23.916Z,8.41
2023-05-19T04:07:23.973Z,7.44
2023-05-19T04:08:24.024Z,7.63
2023-05-19T04:09:24.085Z,7.54
2023-05-19T04:10:24.136Z,7.26
2023-05-19T04:11:24.207Z,9.83
2023-05-19T04:12:24.303Z,12.69
2023-05-19T04:13:24.286Z,13.36
2023-05-19T04:14:24.320Z,13.40
2023-05-19T04:15:24.425Z,13.55
2023-05-19T04:16:24.504Z,11.73
2023-05-19T04:17:24.457Z,10.66
2023-05-19T04:18:25.526Z,11.19
2023-05-19T04:19:24.599Z,12.58
2023-05-19T04:20:24.434Z,11.54
2023-05-19T04:21:24.412Z,8.24
2023-05-19T04:22:24.401Z,8.04
2023-05-19T04:23:24.382Z,8.00
2023-05-19T04:24:24.365Z,7.24
2023-05-19T04:25:24.350Z,8.69
2023-05-19T04:26:24.328Z,10.19
2023-05-19T04:27:24.311Z,10.93
2023-05-19T04:28:24.335Z,12.50
2023-05-19T04:29:24.313Z,9.90
2023-05-19T04:30:24.252Z,6.71
2023-05-19T04:31:24.373Z,6.40
2023-05-19T04:32:24.251Z,6.08
2023-05-19T04:33:24.186Z,5.09
2023-05-19T04:34:24.148Z,4.87
2023-05-19T04:35:24.117Z,4.89
2023-05-19T04:36:24.101Z,4.94
2023-05-19T04:37:24.084Z,4.99
2023-05-19T04:38:24.050Z,4.61
2023-05-19T04:39:24.022Z,4.03
2023-05-19T04:40:24.014Z,3.91
2023-05-19T04:41:23.993Z,4.08
2023-05-19T04:42:23.938Z,4.14
2023-05-19T04:43:23.909Z,3.73
2023-05-19T04:44:23.913Z,3.40
2023-05-19T04:45:23.863Z,3.04
2023-05-19T04:46:23.826Z,2.33
2023-05-19T04:47:23.839Z,2.07
2023-05-19T04:48:23.769Z,2.04
2023-05-19T04:49:23.793Z,2.53
2023-05-19T04:50:23.690Z,3.23
2023-05-19T04:51:23.662Z,4.21
2023-05-19T04:52:23.639Z,5.24
2023-05-19T04:53:23.596Z,5.77
2023-05-19T04:54:23.612Z,6.11
2023-05-19T04:55:23.631Z,6.13
2023-05-19T04:56:23.653Z,8.13
2023-05-19T04:57:23.689Z,11.96
2023-05-19T04:58:23.693Z,16.33
2023-05-19T04:59:23.659Z,21.59
2023-05-19T05:00:23.768Z,36.29
2023-05-19T05:01:23.768Z,59.97
2023-05-19T05:02:23.895Z,91.03
2023-05-19T05:03:23.926Z,122.22
2023-05-19T05:04:23.812Z,152.65
2023-05-19T05:05:23.853Z,170.15
2023-05-19T05:06:23.864Z,172.44
2023-05-19T05:07:23.882Z,172.44
2023-05-19T05:08:23.903Z,159.02
2023-05-19T05:09:23.930Z,124.67
2023-05-19T05:10:23.957Z,112.51
2023-05-19T05:11:23.980Z,156.33
2023-05-19T05:12:24.009Z,134.77
2023-05-19T05:13:24.040Z,105.60
2023-05-19T05:14:24.078Z,89.89
2023-05-19T05:15:24.106Z,69.72
2023-05-19T05:16:24.239Z,66.12
2023-05-19T05:17:24.198Z,64.28
2023-05-19T05:18:24.179Z,45.97
2023-05-19T05:19:24.226Z,40.53
2023-05-19T05:20:24.197Z,33.61
2023-05-19T05:21:24.202Z,20.03
2023-05-19T05:22:24.203Z,15.72
2023-05-19T05:23:24.211Z,9.83
2023-05-19T05:24:24.180Z,7.44
2023-05-19T05:25:24.182Z,6.85
2023-05-19T05:26:24.167Z,5.83
2023-05-19T05:27:24.167Z,5.94
2023-05-19T05:28:24.163Z,5.51
2023-05-19T05:29:24.146Z,5.07
2023-05-19T05:30:24.142Z,5.10
2023-05-19T05:31:24.107Z,5.98
2023-05-19T05:32:24.130Z,6.11
2023-05-19T05:33:24.203Z,5.95
2023-05-19T05:34:23.995Z,5.73
2023-05-19T05:35:23.962Z,6.13
2023-05-19T05:36:23.940Z,7.11
2023-05-19T05:37:23.888Z,7.84
2023-05-19T05:38:23.856Z,10.16
2023-05-19T05:39:23.811Z,13.83
2023-05-19T05:40:23.799Z,21.55
2023-05-19T05:41:23.779Z,27.92
2023-05-19T05:42:23.772Z,36.46
2023-05-19T05:43:23.745Z,39.78
2023-05-19T05:44:23.786Z,43.21
2023-05-19T05:45:23.797Z,41.12
2023-05-19T05:46:24.680Z,35.57
2023-05-19T05:47:23.740Z,37.18
2023-05-19T05:48:23.744Z,33.66
2023-05-19T05:49:23.697Z,20.84
2023-05-19T05:50:23.652Z,22.49
2023-05-19T05:51:23.642Z,25.65
2023-05-19T05:52:23.603Z,19.67
2023-05-19T05:53:23.601Z,17.18
2023-05-19T05:54:23.606Z,10.57
2023-05-19T05:55:23.626Z,8.15
2023-05-19T05:56:23.658Z,6.77
2023-05-19T05:57:23.706Z,7.77
2023-05-19T05:58:23.704Z,10.24
2023-05-19T05:59:23.725Z,11.37
2023-05-19T06:00:23.735Z,10.52
2023-05-19T06:01:23.721Z,11.45
2023-05-19T06:02:23.821Z,11.77
2023-05-19T06:03:23.960Z,12.43
2023-05-19T06:04:23.613Z,10.16
2023-05-19T06:05:23.622Z,10.00
2023-05-19T06:06:23.551Z,10.11
2023-05-19T06:07:23.515Z,11.02
2023-05-19T06:08:23.481Z,10.18
2023-05-19T06:09:23.483Z,8.96
2023-05-19T06:10:23.490Z,9.17
2023-05-19T06:11:23.487Z,6.72
2023-05-19T06:12:23.472Z,4.69
2023-05-19T06:13:23.437Z,4.61
2023-05-19T06:14:23.409Z,4.15
2023-05-19T06:15:23.381Z,4.04
2023-05-19T06:16:23.434Z,3.68
2023-05-19T06:17:23.384Z,3.80
2023-05-19T06:18:23.369Z,3.61
2023-05-19T06:19:23.429Z,3.21
2023-05-19T06:20:23.348Z,2.57
2023-05-19T06:21:23.308Z,2.33
2023-05-19T06:22:23.276Z,2.38
2023-05-19T06:23:23.262Z,2.40
2023-05-19T06:24:23.254Z,2.34
2023-05-19T06:25:23.232Z,2.55
2023-05-19T06:26:23.190Z,2.63
2023-05-19T06:27:23.158Z,2.20
2023-05-19T06:28:23.093Z,1.94
2023-05-19T06:29:23.040Z,1.69
2023-05-19T06:30:22.999Z,1.81
2023-05-19T06:31:23.027Z,1.42
2023-05-19T06:32:23.062Z,1.09
2023-05-19T06:33:22.997Z,1.12
2023-05-19T06:34:22.977Z,1.22
2023-05-19T06:35:22.916Z,1.10
2023-05-19T06:36:22.946Z,1.29
2023-05-19T06:37:22.909Z,1.49
2023-05-19T06:38:22.902Z,1.62
2023-05-19T06:39:22.912Z,1.02
2023-05-19T06:40:22.916Z,1.01
2023-05-19T06:41:22.881Z,1.25
2023-05-19T06:42:22.967Z,0.71
2023-05-19T06:43:22.894Z,0.43
2023-05-19T06:44:22.929Z,0.36
2023-05-19T06:45:22.875Z,0.65
2023-05-19T06:46:22.962Z,0.93
2023-05-19T06:47:22.898Z,0.84
2023-05-19T06:48:22.845Z,0.92
2023-05-19T06:49:22.814Z,0.94
2023-05-19T06:50:22.792Z,0.64
2023-05-19T06:51:22.795Z,0.50
2023-05-19T06:52:22.937Z,0.43
2023-05-19T06:53:22.808Z,0.34
2023-05-19T06:54:22.780Z,0.34
2023-05-19T06:55:22.782Z,0.34
2023-05-19T06:56:22.819Z,0.41
2023-05-19T06:57:23.198Z,0.56
2023-05-19T06:58:22.845Z,0.51
2023-05-19T06:59:22.881Z,0.49
2023-05-19T07:00:24.107Z,0.50
2023-05-19T07:01:23.000Z,0.66
2023-05-19T07:02:22.950Z,0.90
2023-05-19T07:03:23.075Z,1.15
2023-05-19T07:04:23.050Z,1.29
2023-05-19T07:05:23.093Z,1.51
2023-05-19T07:06:23.090Z,1.25
2023-05-19T07:07:23.106Z,1.07
2023-05-19T07:08:23.153Z,1.35
2023-05-19T07:09:23.095Z,1.22
2023-05-19T07:10:23.090Z,0.99
2023-05-19T07:11:23.144Z,0.97
2023-05-19T07:12:23.125Z,1.20
2023-05-19T07:13:24.417Z,1.37
2023-05-19T07:14:23.101Z,1.30
2023-05-19T07:15:23.087Z,1.03
2023-05-19T07:16:23.122Z,0.91
2023-05-19T07:17:23.104Z,0.85
2023-05-19T07:18:23.051Z,0.88
2023-05-19T07:19:23.137Z,1.18
2023-05-19T07:20:22.990Z,1.37
2023-05-19T07:21:22.971Z,1.88
2023-05-19T07:22:22.933Z,2.42
2023-05-19T07:23:22.896Z,2.58
2023-05-19T07:24:22.901Z,2.47
2023-05-19T07:25:22.810Z,2.86
2023-05-19T07:26:22.764Z,3.15
2023-05-19T07:27:22.705Z,1.97
2023-05-19T07:28:22.654Z,1.80
2023-05-19T07:29:22.595Z,1.56
2023-05-19T07:30:22.525Z,1.40
2023-05-19T07:31:22.534Z,0.95
2023-05-19T07:32:22.576Z,0.76
2023-05-19T07:33:22.415Z,0.90
2023-05-19T07:34:22.353Z,1.00
2023-05-19T07:35:22.330Z,1.09
2023-05-19T07:36:22.343Z,0.95
2023-05-19T07:37:22.300Z,0.77
2023-05-19T07:38:22.240Z,0.95
2023-05-19T07:39:23.093Z,1.00
2023-05-19T07:40:22.279Z,0.80
2023-05-19T07:41:22.080Z,0.64
2023-05-19T07:42:22.048Z,0.34
2023-05-19T07:43:22.026Z,0.34
2023-05-19T07:44:22.030Z,0.34
2023-05-19T07:45:21.954Z,0.34
2023-05-19T07:46:21.970Z,0.34
2023-05-19T07:47:21.899Z,0.41
2023-05-19T07:48:21.891Z,0.39
2023-05-19T07:49:21.845Z,0.36
2023-05-19T07:50:21.794Z,0.44
2023-05-19T07:51:21.817Z,0.50
2023-05-19T07:52:21.829Z,0.52
2023-05-19T07:53:21.821Z,0.48
2023-05-19T07:54:21.809Z,0.34
2023-05-19T07:55:21.835Z,0.34
2023-05-19T07:56:21.860Z,0.35
2023-05-19T07:57:21.829Z,0.50
2023-05-19T07:58:21.853Z,0.60
2023-05-19T07:59:21.858Z,0.66
2023-05-19T08:00:21.823Z,0.70
2023-05-19T08:01:21.782Z,0.76
2023-05-19T08:02:21.762Z,0.88
2023-05-19T08:03:21.785Z,0.91
2023-05-19T08:04:21.745Z,1.11
2023-05-19T08:05:21.647Z,0.96
2023-05-19T08:06:21.580Z,1.12
2023-05-19T08:07:21.532Z,1.14
2023-05-19T08:08:21.504Z,1.22
2023-05-19T08:09:21.472Z,1.20
2023-05-19T08:10:21.485Z,1.06
2023-05-19T08:11:21.409Z,0.80
2023-05-19T08:12:21.443Z,0.50
2023-05-19T08:13:21.382Z,0.52
2023-05-19T08:14:21.359Z,0.50
2023-05-19T08:15:21.362Z,0.53
2023-05-19T08:16:21.481Z,0.90
2023-05-19T08:17:21.337Z,0.96
2023-05-19T08:18:21.313Z,0.43
2023-05-19T08:19:21.442Z,0.34
2023-05-19T08:20:21.334Z,0.34
2023-05-19T08:21:21.332Z,0.45
2023-05-19T08:22:21.301Z,0.60
2023-05-19T08:23:21.284Z,0.48
2023-05-19T08:24:21.283Z,0.34
2023-05-19T08:25:21.296Z,0.34
2023-05-19T08:26:21.301Z,0.34
2023-05-19T08:27:21.298Z,0.34
2023-05-19T08:28:21.266Z,0.34
2023-05-19T08:29:21.250Z,0.44
2023-05-19T08:30:21.191Z,0.70
2023-05-19T08:31:21.224Z,0.68
2023-05-19T08:32:21.261Z,0.47
2023-05-19T08:33:21.114Z,0.34
2023-05-19T08:34:21.044Z,0.34
2023-05-19T08:35:20.985Z,0.34
2023-05-19T08:36:20.959Z,0.34
2023-05-19T08:37:20.946Z,0.34
2023-05-19T08:38:20.930Z,0.34
2023-05-19T08:39:20.916Z,0.34
2023-05-19T08:40:21.146Z,0.34
2023-05-19T08:41:20.813Z,0.34
2023-05-19T08:42:20.780Z,0.50
2023-05-19T08:43:20.716Z,0.57
2023-05-19T08:44:20.712Z,0.46
2023-05-19T08:45:20.529Z,0.34
2023-05-19T08:46:20.467Z,0.40
2023-05-19T08:47:20.357Z,1.19
2023-05-19T08:48:20.274Z,1.69
2023-05-19T08:49:20.210Z,1.30
2023-05-19T08:50:20.151Z,0.86
2023-05-19T08:51:20.080Z,0.68
2023-05-19T08:52:20.041Z,0.82
2023-05-19T08:53:32.324Z,0.91
2023-05-19T08:54:19.881Z,0.93
2023-05-19T08:55:19.791Z,1.00
2023-05-19T08:56:19.673Z,0.99
2023-05-19T08:57:19.567Z,0.59
2023-05-19T08:58:19.444Z,0.61
2023-05-19T08:59:19.318Z,0.72
2023-05-19T09:00:19.259Z,0.47
2023-05-19T09:01:19.192Z,0.34
2023-05-19T09:02:19.088Z,0.44
2023-05-19T09:03:23.742Z,0.68
2023-05-19T09:04:18.998Z,0.69
2023-05-19T09:05:18.758Z,0.92
2023-05-19T09:06:19.280Z,1.89
2023-05-19T09:07:18.627Z,0.75
2023-05-19T09:08:18.497Z,1.03
2023-05-19T09:09:18.420Z,1.93
2023-05-19T09:10:18.302Z,4.52
2023-05-19T09:11:18.218Z,15.85
2023-05-19T09:12:18.140Z,8.76
2023-05-19T09:13:18.052Z,7.67
2023-05-19T09:14:17.973Z,9.36
2023-05-19T09:15:17.887Z,7.56
2023-05-19T09:16:18.067Z,9.37
2023-05-19T09:17:17.731Z,14.46
2023-05-19T09:18:17.645Z,10.85
2023-05-19T09:19:17.587Z,8.74
2023-05-19T09:20:17.467Z,10.11
2023-05-19T09:21:17.369Z,8.42
2023-05-19T09:22:17.287Z,7.94
2023-05-19T09:23:17.272Z,4.60
2023-05-19T09:24:17.095Z,3.53
2023-05-19T09:25:17.008Z,3.69
2023-05-19T09:26:16.924Z,3.49
2023-05-19T09:27:16.800Z,4.15
2023-05-19T09:28:16.691Z,1.71
2023-05-19T09:29:16.629Z,1.26
2023-05-19T09:30:16.576Z,1.53
2023-05-19T09:31:16.419Z,1.74
2023-05-19T09:32:16.367Z,1.20
2023-05-19T09:33:16.296Z,1.06
2023-05-19T09:34:16.198Z,1.28
2023-05-19T09:35:16.209Z,1.15
2023-05-19T09:36:16.116Z,2.42
2023-05-19T09:37:16.038Z,3.46
2023-05-19T09:38:15.989Z,4.67
2023-05-19T09:39:15.964Z,4.05
2023-05-19T09:40:15.963Z,5.53
2023-05-19T09:41:15.944Z,4.72
2023-05-19T09:42:15.911Z,7.22
2023-05-19T09:43:15.886Z,2.70
2023-05-19T09:44:15.870Z,2.26
2023-05-19T09:45:15.830Z,2.69
2023-05-19T09:46:15.851Z,3.15
2023-05-19T09:47:15.749Z,2.46
2023-05-19T09:48:15.875Z,1.65
2023-05-19T09:49:15.713Z,1.97
2023-05-19T09:50:15.659Z,2.06
2023-05-19T09:51:15.612Z,1.29
2023-05-19T09:52:15.539Z,1.17
2023-05-19T09:53:15.510Z,1.41
2023-05-19T09:54:15.478Z,2.24
2023-05-19T09:55:15.441Z,3.69
2023-05-19T09:56:15.394Z,2.56
2023-05-19T09:57:15.273Z,3.33
2023-05-19T09:58:15.222Z,5.38
2023-05-19T09:59:15.155Z,6.45
2023-05-19T10:00:15.090Z,7.36
2023-05-19T10:01:15.065Z,3.96
2023-05-19T10:02:15.011Z,4.73
2023-05-19T10:03:15.016Z,6.73
2023-05-19T10:04:15.093Z,3.29
2023-05-19T10:05:15.009Z,1.57
2023-05-19T10:06:14.870Z,1.59
2023-05-19T10:07:14.830Z,2.42
2023-05-19T10:08:14.789Z,2.35
2023-05-19T10:09:14.759Z,2.54
2023-05-19T10:10:14.705Z,3.47
2023-05-19T10:11:14.663Z,4.36
2023-05-19T10:12:14.645Z,5.28
2023-05-19T10:13:14.634Z,3.56
2023-05-19T10:14:14.603Z,3.04
2023-05-19T10:15:14.563Z,2.84
2023-05-19T10:16:14.612Z,4.85
2023-05-19T10:17:14.527Z,4.63
2023-05-19T10:18:14.499Z,3.61
2023-05-19T10:19:14.501Z,5.87
2023-05-19T10:20:14.484Z,5.01
2023-05-19T10:21:14.382Z,3.69
2023-05-19T10:22:14.365Z,3.26
2023-05-19T10:23:14.322Z,3.48
2023-05-19T10:24:14.300Z,3.62
2023-05-19T10:25:14.261Z,3.81
2023-05-19T10:26:14.241Z,2.48
2023-05-19T10:27:14.206Z,1.55
2023-05-19T10:28:14.165Z,2.16
2023-05-19T10:29:14.147Z,2.97
2023-05-19T10:30:15.758Z,1.73
2023-05-19T10:31:14.012Z,1.43
2023-05-19T10:32:13.970Z,1.40
2023-05-19T10:33:13.950Z,3.01
2023-05-19T10:34:13.788Z,2.76
2023-05-19T10:35:13.695Z,1.13
2023-05-19T10:36:13.675Z,0.73
2023-05-19T10:37:13.561Z,0.97
2023-05-19T10:38:13.471Z,1.26
2023-05-19T10:39:13.397Z,1.50
2023-05-19T10:40:13.295Z,0.99
2023-05-19T10:41:13.235Z,0.86
2023-05-19T10:42:13.139Z,0.96
2023-05-19T10:43:13.048Z,0.53
2023-05-19T10:44:12.964Z,0.51
2023-05-19T10:45:12.894Z,0.60
2023-05-19T10:46:12.846Z,0.51
2023-05-19T10:47:12.898Z,1.07
2023-05-19T10:48:12.730Z,1.01
2023-05-19T10:49:12.572Z,0.92
2023-05-19T10:50:12.520Z,0.66
2023-05-19T10:51:12.439Z,0.52
2023-05-19T10:52:12.339Z,0.50
2023-05-19T10:53:12.221Z,0.56
2023-05-19T10:54:13.596Z,0.96
2023-05-19T10:55:12.009Z,1.73
2023-05-19T10:56:11.898Z,1.45
2023-05-19T10:57:11.804Z,0.96
2023-05-19T10:58:11.709Z,0.50
2023-05-19T10:59:11.611Z,0.62
2023-05-19T11:00:11.534Z,0.50
2023-05-19T11:01:11.418Z,1.18
2023-05-19T11:02:11.397Z,0.85
2023-05-19T11:03:11.303Z,1.97
2023-05-19T11:04:11.148Z,2.07
2023-05-19T11:05:11.041Z,1.21
2023-05-19T11:06:10.926Z,1.24
2023-05-19T11:07:10.836Z,1.17
2023-05-19T11:08:10.823Z,1.01
2023-05-19T11:09:10.706Z,2.56
2023-05-19T11:10:10.570Z,2.13
2023-05-19T11:11:10.475Z,1.73
2023-05-19T11:12:10.404Z,1.47
2023-05-19T11:13:10.319Z,1.66
2023-05-19T11:14:10.244Z,2.19
2023-05-19T11:15:10.181Z,1.34
2023-05-19T11:16:10.144Z,2.14
2023-05-19T11:17:10.065Z,1.78
2023-05-19T11:18:10.055Z,1.82
2023-05-19T11:19:09.962Z,5.04
2023-05-19T11:20:09.868Z,8.88
2023-05-19T11:21:09.812Z,4.46
2023-05-19T11:22:09.719Z,3.31
2023-05-19T11:23:09.824Z,3.04
2023-05-19T11:24:09.708Z,2.92
2023-05-19T11:25:09.483Z,3.51
2023-05-19T11:26:09.417Z,6.27
2023-05-19T11:27:09.342Z,6.62
2023-05-19T11:28:09.326Z,5.23
2023-05-19T11:29:09.288Z,4.49
2023-05-19T11:30:09.327Z,3.88
2023-05-19T11:31:09.230Z,4.10
2023-05-19T11:32:09.323Z,3.71
2023-05-19T11:33:09.270Z,7.93
2023-05-19T11:34:09.141Z,9.89
2023-05-19T11:35:09.103Z,10.50
2023-05-19T11:36:09.043Z,7.67
2023-05-19T11:37:09.003Z,4.22
2023-05-19T11:38:08.981Z,4.59
2023-05-19T11:39:08.941Z,5.88
2023-05-19T11:40:08.957Z,3.71
2023-05-19T11:41:08.913Z,4.24
2023-05-19T11:42:08.869Z,3.76
2023-05-19T11:43:08.838Z,5.12
2023-05-19T11:44:08.799Z,7.19
2023-05-19T11:45:08.754Z,9.03
2023-05-19T11:46:08.798Z,5.86
2023-05-19T11:47:08.825Z,4.37
2023-05-19T11:48:08.691Z,3.99
2023-05-19T11:49:08.640Z,3.32
2023-05-19T11:50:08.633Z,4.20
2023-05-19T11:51:08.620Z,8.25
2023-05-19T11:52:08.592Z,7.11
2023-05-19T11:53:08.548Z,4.37
2023-05-19T11:54:08.532Z,2.84
2023-05-19T11:55:08.516Z,1.17
2023-05-19T11:56:08.516Z,1.20
2023-05-19T11:57:08.456Z,0.72
2023-05-19T11:58:08.411Z,1.07
2023-05-19T11:59:08.385Z,1.27
2023-05-19T12:00:08.342Z,1.30
2023-05-19T12:01:08.336Z,1.68
2023-05-19T12:02:08.425Z,0.92
2023-05-19T12:03:08.882Z,0.57
2023-05-19T12:04:08.294Z,0.69
2023-05-19T12:05:08.241Z,1.83
2023-05-19T12:06:08.155Z,1.12
2023-05-19T12:07:08.114Z,0.82
2023-05-19T12:08:08.007Z,0.83
2023-05-19T12:09:07.942Z,1.52
2023-05-19T12:10:07.906Z,2.71
2023-05-19T12:11:07.887Z,2.88
2023-05-19T12:12:07.922Z,4.63
2023-05-19T12:13:07.834Z,4.76
2023-05-19T12:14:07.829Z,5.53
2023-05-19T12:15:07.818Z,4.91
2023-05-19T12:16:07.844Z,5.07
2023-05-19T12:17:07.779Z,6.81
2023-05-19T12:18:07.902Z,8.34
2023-05-19T12:19:07.790Z,10.52
2023-05-19T12:20:07.732Z,22.37
2023-05-19T12:21:07.712Z,29.86
2023-05-19T12:22:07.686Z,30.49
2023-05-19T12:23:07.688Z,24.73
2023-05-19T12:24:07.587Z,18.68
2023-05-19T12:25:07.624Z,22.20
2023-05-19T12:26:07.588Z,25.47
2023-05-19T12:27:07.526Z,25.38
2023-05-19T12:28:07.554Z,32.39
2023-05-19T12:29:07.515Z,35.24
2023-05-19T12:30:07.471Z,33.41
2023-05-19T12:31:07.437Z,29.05
2023-05-19T12:32:07.515Z,23.89
2023-05-19T12:33:07.394Z,19.53
2023-05-19T12:34:07.358Z,23.69
2023-05-19T12:35:07.363Z,32.93
2023-05-19T12:36:07.316Z,33.17
2023-05-19T12:37:07.307Z,42.61
2023-05-19T12:38:07.308Z,29.86
2023-05-19T12:39:07.215Z,23.18
2023-05-19T12:40:07.199Z,23.37
2023-05-19T12:41:07.157Z,20.68
2023-05-19T12:42:07.118Z,24.78
2023-05-19T12:43:07.104Z,30.66
2023-05-19T12:44:07.227Z,27.52
2023-05-19T12:45:07.048Z,24.33
2023-05-19T12:46:07.084Z,30.07
2023-05-19T12:47:06.979Z,47.90
2023-05-19T12:48:07.077Z,65.38
2023-05-19T12:49:06.919Z,102.83
2023-05-19T12:50:06.909Z,109.93
2023-05-19T12:51:06.875Z,70.30
2023-05-19T12:52:11.753Z,64.12
2023-05-19T12:53:06.788Z,38.98
2023-05-19T12:54:06.810Z,57.65
2023-05-19T12:55:06.831Z,52.94
2023-05-19T12:56:06.613Z,44.52
2023-05-19T12:57:06.561Z,40.91
2023-05-19T12:58:06.501Z,45.31
2023-05-19T12:59:06.420Z,43.82
2023-05-19T13:00:06.367Z,50.33
2023-05-19T13:01:06.396Z,54.59
2023-05-19T13:02:06.407Z,90.57
2023-05-19T13:03:06.217Z,103.73
2023-05-19T13:04:06.675Z,106.85
2023-05-19T13:05:05.972Z,118.84
2023-05-19T13:06:05.904Z,84.88
2023-05-19T13:07:05.816Z,41.75
2023-05-19T13:08:05.739Z,35.16
2023-05-19T13:09:05.672Z,28.71
2023-05-19T13:10:05.614Z,22.34
2023-05-19T13:11:05.549Z,30.15
2023-05-19T13:12:05.491Z,52.94
2023-05-19T13:13:05.422Z,52.92